createdAt,value
2019-05-16T00:00:01.640Z,331.10
2019-05-16T00:00:40.127Z,305.10
2019-05-16T00:01:12.848Z,311.00
2019-05-16T00:01:48.760Z,332.50
2019-05-16T00:02:23.330Z,343.20
2019-05-16T00:02:59.121Z,324.80
2019-05-16T00:03:34.342Z,315.90
2019-05-16T00:04:09.464Z,315.00
2019-05-16T00:04:44.767Z,329.30
2019-05-16T00:05:20.557Z,349.90
2019-05-16T00:05:58.247Z,344.70
2019-05-16T00:06:31.570Z,323.20
2019-05-16T00:07:08.115Z,312.30
2019-05-16T00:07:42.557Z,328.40
2019-05-16T00:08:17.874Z,324.40
2019-05-16T00:08:53.271Z,323.20
2019-05-16T00:09:28.655Z,331.90
2019-05-16T00:10:03.856Z,321.00
2019-05-16T00:10:39.240Z,326.40
2019-05-16T00:11:14.450Z,324.80
2019-05-16T00:11:49.647Z,325.10
2019-05-16T00:12:25.249Z,317.40
2019-05-16T00:13:00.421Z,330.70
2019-05-16T00:13:35.736Z,329.60
2019-05-16T00:14:11.309Z,306.30
2019-05-16T00:14:48.807Z,292.60
2019-05-16T00:15:22.343Z,320.40
2019-05-16T00:15:58.746Z,333.50
2019-05-16T00:16:33.051Z,330.80
2019-05-16T00:17:08.522Z,303.00
2019-05-16T00:17:43.527Z,305.40
2019-05-16T00:18:18.906Z,291.90
2019-05-16T00:18:54.113Z,310.10
2019-05-16T00:19:29.416Z,323.10
2019-05-16T00:20:04.604Z,317.40
2019-05-16T00:20:39.899Z,317.10
2019-05-16T00:21:15.283Z,306.80
2019-05-16T00:21:50.710Z,315.20
2019-05-16T00:22:25.914Z,320.50
2019-05-16T00:23:01.217Z,298.80
2019-05-16T00:23:37.848Z,306.80
2019-05-16T00:24:11.910Z,299.40
2019-05-16T00:24:48.756Z,310.40
2019-05-16T00:25:22.722Z,319.00
2019-05-16T00:25:58.609Z,317.80
2019-05-16T00:26:33.501Z,310.30
2019-05-16T00:27:08.924Z,301.70
2019-05-16T00:27:44.467Z,293.10
2019-05-16T00:28:20.151Z,296.40
2019-05-16T00:28:55.476Z,284.20
2019-05-16T00:29:30.847Z,306.00
2019-05-16T00:30:06.058Z,323.70
2019-05-16T00:30:41.494Z,304.40
2019-05-16T00:31:18.355Z,289.20
2019-05-16T00:31:52.308Z,295.50
2019-05-16T00:32:28.177Z,322.20
2019-05-16T00:33:02.943Z,333.60
2019-05-16T00:33:38.154Z,306.20
2019-05-16T00:34:13.433Z,323.30
2019-05-16T00:34:48.724Z,318.50
2019-05-16T00:35:23.838Z,317.20
2019-05-16T00:36:03.485Z,316.10
2019-05-16T00:36:34.634Z,305.40
2019-05-16T00:37:10.021Z,298.50
2019-05-16T00:37:45.318Z,312.90
2019-05-16T00:38:20.763Z,328.10
2019-05-16T00:38:57.726Z,334.00
2019-05-16T00:39:31.746Z,316.00
2019-05-16T00:40:08.236Z,321.90
2019-05-16T00:40:42.727Z,306.60
2019-05-16T00:41:17.901Z,277.20
2019-05-16T00:41:53.496Z,309.20
2019-05-16T00:42:28.990Z,324.60
2019-05-16T00:43:04.389Z,320.60
2019-05-16T00:43:39.704Z,315.20
2019-05-16T00:44:15.419Z,304.00
2019-05-16T00:44:50.833Z,302.20
2019-05-16T00:45:29.165Z,282.40
2019-05-16T00:46:01.720Z,301.40
2019-05-16T00:46:38.522Z,320.50
2019-05-16T00:47:12.127Z,321.40
2019-05-16T00:47:47.933Z,299.70
2019-05-16T00:48:22.840Z,299.60
2019-05-16T00:48:58.951Z,332.40
2019-05-16T00:49:33.573Z,309.90
2019-05-16T00:50:09.155Z,313.30
2019-05-16T00:50:44.575Z,322.20
2019-05-16T00:51:20.085Z,311.70
2019-05-16T00:51:55.282Z,302.70
2019-05-16T00:52:30.700Z,305.10
2019-05-16T00:53:05.990Z,312.10
2019-05-16T00:53:41.295Z,338.90
2019-05-16T00:54:18.452Z,322.10
2019-05-16T00:54:51.935Z,318.40
2019-05-16T00:55:28.419Z,316.10
2019-05-16T00:56:02.842Z,288.30
2019-05-16T00:56:38.329Z,292.50
2019-05-16T00:57:13.443Z,303.60
2019-05-16T00:57:48.933Z,309.20
2019-05-16T00:58:24.450Z,299.80
2019-05-16T00:58:59.645Z,294.10
2019-05-16T00:59:35.293Z,307.50
2019-05-16T01:00:10.687Z,302.50
2019-05-16T01:00:49.164Z,289.00
2019-05-16T01:01:21.294Z,313.70
2019-05-16T01:01:58.632Z,317.20
2019-05-16T01:02:31.833Z,312.70
2019-05-16T01:03:08.113Z,323.40
2019-05-16T01:03:42.534Z,333.30
2019-05-16T01:04:18.234Z,317.40
2019-05-16T01:04:53.660Z,295.40
2019-05-16T01:05:29.149Z,307.70
2019-05-16T01:06:15.644Z,312.10
2019-05-16T01:06:39.984Z,310.00
2019-05-16T01:07:15.307Z,307.30
2019-05-16T01:07:50.891Z,316.10
2019-05-16T01:08:27.895Z,320.40
2019-05-16T01:09:01.490Z,313.00
2019-05-16T01:09:38.559Z,302.60
2019-05-16T01:10:12.615Z,311.40
2019-05-16T01:10:51.110Z,331.90
2019-05-16T01:11:23.732Z,337.50
2019-05-16T01:11:59.756Z,327.20
2019-05-16T01:12:34.953Z,320.90
2019-05-16T01:13:10.468Z,318.30
2019-05-16T01:13:45.738Z,329.00
2019-05-16T01:14:21.132Z,333.70
2019-05-16T01:14:58.274Z,303.10
2019-05-16T01:15:31.861Z,313.20
2019-05-16T01:16:08.690Z,323.40
2019-05-16T01:16:42.252Z,328.40
2019-05-16T01:17:18.167Z,319.80
2019-05-16T01:17:53.015Z,291.50
2019-05-16T01:18:28.942Z,313.80
2019-05-16T01:19:03.983Z,330.10
2019-05-16T01:19:39.375Z,331.90
2019-05-16T01:20:14.879Z,309.40
2019-05-16T01:20:50.189Z,284.20
2019-05-16T01:21:25.487Z,305.20
2019-05-16T01:22:00.666Z,308.60
2019-05-16T01:22:35.674Z,310.10
2019-05-16T01:23:10.848Z,310.70
2019-05-16T01:23:48.071Z,306.60
2019-05-16T01:24:21.469Z,344.50
2019-05-16T01:24:58.307Z,339.60
2019-05-16T01:25:32.385Z,321.60
2019-05-16T01:26:07.915Z,319.20
2019-05-16T01:26:42.915Z,321.00
2019-05-16T01:27:18.598Z,310.50
2019-05-16T01:27:53.908Z,319.10
2019-05-16T01:28:29.208Z,327.70
2019-05-16T01:29:04.429Z,318.40
2019-05-16T01:29:39.721Z,322.20
2019-05-16T01:30:15.030Z,312.30
2019-05-16T01:30:50.425Z,298.50
2019-05-16T01:31:27.823Z,325.70
2019-05-16T01:32:01.065Z,325.60
2019-05-16T01:32:39.298Z,325.00
2019-05-16T01:33:12.374Z,316.80
2019-05-16T01:33:48.079Z,279.90
2019-05-16T01:34:23.477Z,279.90
2019-05-16T01:34:59.054Z,306.00
2019-05-16T01:35:34.399Z,312.00
2019-05-16T01:36:09.476Z,306.40
2019-05-16T01:36:45.113Z,293.80
2019-05-16T01:37:20.257Z,285.60
2019-05-16T01:37:57.959Z,292.90
2019-05-16T01:38:31.162Z,304.00
2019-05-16T01:39:07.997Z,317.80
2019-05-16T01:39:42.253Z,331.50
2019-05-16T01:40:18.882Z,323.40
2019-05-16T01:40:52.736Z,330.00
2019-05-16T01:41:28.493Z,326.40
2019-05-16T01:42:03.196Z,320.90
2019-05-16T01:42:38.515Z,341.90
2019-05-16T01:43:13.894Z,313.10
2019-05-16T01:43:49.169Z,293.00
2019-05-16T01:44:24.679Z,302.00
2019-05-16T01:45:00.086Z,296.40
2019-05-16T01:45:35.371Z,300.80
2019-05-16T01:46:10.581Z,336.30
2019-05-16T01:46:47.944Z,328.70
2019-05-16T01:47:21.419Z,323.70
2019-05-16T01:47:58.614Z,308.70
2019-05-16T01:48:31.997Z,316.50
2019-05-16T01:49:08.230Z,331.70
2019-05-16T01:49:43.000Z,309.10
2019-05-16T01:50:18.393Z,307.90
2019-05-16T01:50:53.629Z,276.70
2019-05-16T01:51:28.949Z,279.40
2019-05-16T01:52:04.320Z,306.40
2019-05-16T01:52:39.746Z,312.60
2019-05-16T01:53:15.113Z,314.70
2019-05-16T01:53:50.521Z,302.00
2019-05-16T01:54:28.131Z,271.30
2019-05-16T01:55:01.118Z,277.10
2019-05-16T01:55:37.947Z,312.90
2019-05-16T01:56:11.823Z,314.90
2019-05-16T01:56:48.125Z,297.80
2019-05-16T01:57:22.506Z,287.50
2019-05-16T01:57:58.476Z,297.10
2019-05-16T01:58:33.553Z,306.80
2019-05-16T01:59:08.999Z,310.30
2019-05-16T01:59:44.151Z,304.00
2019-05-16T02:00:25.034Z,336.50
2019-05-16T02:01:06.061Z,304.80
2019-05-16T02:01:30.560Z,300.20
2019-05-16T02:02:08.183Z,311.00
2019-05-16T02:02:41.152Z,333.10
2019-05-16T02:03:18.821Z,344.80
2019-05-16T02:03:52.071Z,334.00
2019-05-16T02:04:28.637Z,300.50
2019-05-16T02:05:02.531Z,310.50
2019-05-16T02:05:38.742Z,305.40
2019-05-16T02:06:13.010Z,309.20
2019-05-16T02:06:54.270Z,331.70
2019-05-16T02:07:23.385Z,312.40
2019-05-16T02:07:58.908Z,300.50
2019-05-16T02:08:34.755Z,309.20
2019-05-16T02:09:11.578Z,334.70
2019-05-16T02:09:47.556Z,330.10
2019-05-16T02:10:20.926Z,296.80
2019-05-16T02:10:58.182Z,280.40
2019-05-16T02:11:31.715Z,311.70
2019-05-16T02:12:08.117Z,325.00
2019-05-16T02:12:42.404Z,332.40
2019-05-16T02:13:18.026Z,332.90
2019-05-16T02:13:53.119Z,313.50
2019-05-16T02:14:28.520Z,304.70
2019-05-16T02:15:03.807Z,313.60
2019-05-16T02:15:39.112Z,324.50
2019-05-16T02:16:14.291Z,330.50
2019-05-16T02:16:49.988Z,326.30
2019-05-16T02:17:25.366Z,327.60
2019-05-16T02:18:00.764Z,326.70
2019-05-16T02:18:38.067Z,299.70
2019-05-16T02:19:11.988Z,314.00
2019-05-16T02:19:48.559Z,332.10
2019-05-16T02:20:22.852Z,351.60
2019-05-16T02:21:01.172Z,340.80
2019-05-16T02:21:33.378Z,312.70
2019-05-16T02:22:08.949Z,330.30
2019-05-16T02:22:44.071Z,317.50
2019-05-16T02:23:19.451Z,331.10
2019-05-16T02:23:54.853Z,334.20
2019-05-16T02:24:30.155Z,314.60
2019-05-16T02:25:07.636Z,295.80
2019-05-16T02:25:40.967Z,306.20
2019-05-16T02:26:18.906Z,327.90
2019-05-16T02:26:52.429Z,315.00
2019-05-16T02:27:28.688Z,328.00
2019-05-16T02:28:02.431Z,317.40
2019-05-16T02:28:40.846Z,290.30
2019-05-16T02:29:13.736Z,295.00
2019-05-16T02:29:50.541Z,304.80
2019-05-16T02:30:23.714Z,328.00
2019-05-16T02:31:01.356Z,320.70
2019-05-16T02:31:34.595Z,295.90
2019-05-16T02:32:11.494Z,306.30
2019-05-16T02:32:45.188Z,331.80
2019-05-16T02:33:21.446Z,333.20
2019-05-16T02:33:55.675Z,334.30
2019-05-16T02:34:31.204Z,334.00
2019-05-16T02:35:06.600Z,313.50
2019-05-16T02:35:41.933Z,324.40
2019-05-16T02:36:17.228Z,342.50
2019-05-16T02:37:10.324Z,332.10
2019-05-16T02:37:33.363Z,310.00
2019-05-16T02:38:02.745Z,295.30
2019-05-16T02:38:38.238Z,314.80
2019-05-16T02:39:13.448Z,329.60
2019-05-16T02:39:51.442Z,354.90
2019-05-16T02:40:23.977Z,327.20
2019-05-16T02:41:02.624Z,308.10
2019-05-16T02:41:34.474Z,333.20
2019-05-16T02:42:11.948Z,339.20
2019-05-16T02:42:45.291Z,327.80
2019-05-16T02:43:25.279Z,295.40
2019-05-16T02:43:55.592Z,314.70
2019-05-16T02:44:31.719Z,338.40
2019-05-16T02:45:06.407Z,342.80
2019-05-16T02:45:41.720Z,351.50
2019-05-16T02:46:17.030Z,333.60
2019-05-16T02:46:52.454Z,307.20
2019-05-16T02:47:27.853Z,325.30
2019-05-16T02:48:02.951Z,347.80
2019-05-16T02:48:40.831Z,348.20
2019-05-16T02:49:13.877Z,338.80
2019-05-16T02:49:50.547Z,323.40
2019-05-16T02:50:24.458Z,316.90
2019-05-16T02:51:01.829Z,301.80
2019-05-16T02:51:34.979Z,321.30
2019-05-16T02:52:10.913Z,341.00
2019-05-16T02:52:45.766Z,335.00
2019-05-16T02:53:22.558Z,305.30
2019-05-16T02:53:56.427Z,321.80
2019-05-16T02:54:31.766Z,351.30
2019-05-16T02:55:07.330Z,343.40
2019-05-16T02:55:42.654Z,357.50
2019-05-16T02:56:20.919Z,337.00
2019-05-16T02:56:53.476Z,329.70
2019-05-16T02:57:31.340Z,335.70
2019-05-16T02:58:04.068Z,324.50
2019-05-16T02:58:44.286Z,341.20
2019-05-16T02:59:14.661Z,343.00
2019-05-16T02:59:50.954Z,326.50
2019-05-16T03:00:25.247Z,332.80
2019-05-16T03:01:01.898Z,340.30
2019-05-16T03:01:36.098Z,353.30
2019-05-16T03:02:11.818Z,340.80
2019-05-16T03:02:46.782Z,315.90
2019-05-16T03:03:22.195Z,327.50
2019-05-16T03:03:57.373Z,343.50
2019-05-16T03:04:32.969Z,341.30
2019-05-16T03:05:11.547Z,333.30
2019-05-16T03:05:43.773Z,329.40
2019-05-16T03:06:21.063Z,333.90
2019-05-16T03:06:54.683Z,330.50
2019-05-16T03:07:37.665Z,333.40
2019-05-16T03:08:04.985Z,347.80
2019-05-16T03:08:41.143Z,336.10
2019-05-16T03:09:15.667Z,346.70
2019-05-16T03:09:51.479Z,327.50
2019-05-16T03:10:26.464Z,326.30
2019-05-16T03:11:01.979Z,350.70
2019-05-16T03:11:37.358Z,343.40
2019-05-16T03:12:12.710Z,355.10
2019-05-16T03:12:50.876Z,351.60
2019-05-16T03:13:23.388Z,322.20
2019-05-16T03:14:00.566Z,322.00
2019-05-16T03:14:34.079Z,342.30
2019-05-16T03:15:10.997Z,341.50
2019-05-16T03:15:44.770Z,336.00
2019-05-16T03:16:22.278Z,346.30
2019-05-16T03:16:55.547Z,343.30
2019-05-16T03:17:31.755Z,353.80
2019-05-16T03:18:05.969Z,350.90
2019-05-16T03:18:41.601Z,339.50
2019-05-16T03:19:16.547Z,315.20
2019-05-16T03:19:51.909Z,317.80
2019-05-16T03:20:27.028Z,320.50
2019-05-16T03:21:02.337Z,338.30
2019-05-16T03:21:37.628Z,339.80
2019-05-16T03:22:12.819Z,342.30
2019-05-16T03:22:51.712Z,335.50
2019-05-16T03:23:23.749Z,321.10
2019-05-16T03:24:00.886Z,305.50
2019-05-16T03:24:34.616Z,334.30
2019-05-16T03:25:11.546Z,337.80
2019-05-16T03:25:45.217Z,338.70
2019-05-16T03:26:20.982Z,326.20
2019-05-16T03:26:55.530Z,346.10
2019-05-16T03:27:30.914Z,354.90
2019-05-16T03:28:06.066Z,331.90
2019-05-16T03:28:41.537Z,315.80
2019-05-16T03:29:16.745Z,343.30
2019-05-16T03:29:52.230Z,342.20
2019-05-16T03:30:27.741Z,345.50
2019-05-16T03:31:05.348Z,343.80
2019-05-16T03:31:43.644Z,343.40
2019-05-16T03:32:14.451Z,334.30
2019-05-16T03:32:54.147Z,339.90
2019-05-16T03:33:32.247Z,339.20
2019-05-16T03:34:05.812Z,337.70
2019-05-16T03:34:35.012Z,336.20
2019-05-16T03:35:14.924Z,326.20
2019-05-16T03:35:45.397Z,348.70
2019-05-16T03:36:25.094Z,342.30
2019-05-16T03:36:55.793Z,343.10
2019-05-16T03:37:31.088Z,315.70
2019-05-16T03:38:06.333Z,327.80
2019-05-16T03:38:41.570Z,341.90
2019-05-16T03:39:16.620Z,338.10
2019-05-16T03:39:51.890Z,355.20
2019-05-16T03:40:27.203Z,351.50
2019-05-16T03:41:02.790Z,329.60
2019-05-16T03:41:41.226Z,332.90
2019-05-16T03:42:13.575Z,355.20
2019-05-16T03:42:51.686Z,348.10
2019-05-16T03:43:23.934Z,341.60
2019-05-16T03:44:01.301Z,322.70
2019-05-16T03:44:34.649Z,338.30
2019-05-16T03:45:10.754Z,360.50
2019-05-16T03:45:45.754Z,356.30
2019-05-16T03:46:21.470Z,336.80
2019-05-16T03:46:56.439Z,340.30
2019-05-16T03:47:31.702Z,348.20
2019-05-16T03:48:07.032Z,371.70
2019-05-16T03:48:42.454Z,359.00
2019-05-16T03:49:17.805Z,342.10
2019-05-16T03:49:53.198Z,344.60
2019-05-16T03:50:30.683Z,352.40
2019-05-16T03:51:04.408Z,327.60
2019-05-16T03:51:41.405Z,311.70
2019-05-16T03:52:15.299Z,330.80
2019-05-16T03:52:51.115Z,359.70
2019-05-16T03:53:26.244Z,354.90
2019-05-16T03:54:02.787Z,356.20
2019-05-16T03:54:36.967Z,340.10
2019-05-16T03:55:12.234Z,348.60
2019-05-16T03:55:47.546Z,362.10
2019-05-16T03:56:23.435Z,378.20
2019-05-16T03:57:00.498Z,386.90
2019-05-16T03:57:33.927Z,373.50
2019-05-16T03:58:11.700Z,344.40
2019-05-16T03:58:44.605Z,339.90
2019-05-16T03:59:21.591Z,329.80
2019-05-16T03:59:55.130Z,354.40
2019-05-16T04:00:31.644Z,358.30
2019-05-16T04:01:06.135Z,340.40
2019-05-16T04:01:41.436Z,360.20
2019-05-16T04:02:16.642Z,363.70
2019-05-16T04:02:52.395Z,351.30
2019-05-16T04:03:28.794Z,361.10
2019-05-16T04:04:03.229Z,377.70
2019-05-16T04:04:41.489Z,352.20
2019-05-16T04:05:13.936Z,351.70
2019-05-16T04:05:52.060Z,352.30
2019-05-16T04:06:24.416Z,335.30
2019-05-16T04:07:01.385Z,328.10
2019-05-16T04:07:35.017Z,335.80
2019-05-16T04:08:18.756Z,339.80
2019-05-16T04:08:45.392Z,343.80
2019-05-16T04:09:21.061Z,373.50
2019-05-16T04:09:55.600Z,371.70
2019-05-16T04:10:31.085Z,344.70
2019-05-16T04:11:06.091Z,329.00
2019-05-16T04:11:42.556Z,348.00
2019-05-16T04:12:17.125Z,351.60
2019-05-16T04:12:52.399Z,354.60
2019-05-16T04:13:27.708Z,363.20
2019-05-16T04:14:03.097Z,344.60
2019-05-16T04:14:40.907Z,337.00
2019-05-16T04:15:14.500Z,354.10
2019-05-16T04:15:52.550Z,360.00
2019-05-16T04:16:24.997Z,340.00
2019-05-16T04:17:01.293Z,346.30
2019-05-16T04:17:36.295Z,333.00
2019-05-16T04:18:11.530Z,312.60
2019-05-16T04:18:47.121Z,315.90
2019-05-16T04:19:22.526Z,319.60
2019-05-16T04:20:01.524Z,324.50
2019-05-16T04:20:33.314Z,336.70
2019-05-16T04:21:11.645Z,347.50
2019-05-16T04:21:44.403Z,352.00
2019-05-16T04:22:21.474Z,323.60
2019-05-16T04:22:55.175Z,328.20
2019-05-16T04:23:31.273Z,325.30
2019-05-16T04:24:05.897Z,313.70
2019-05-16T04:24:41.793Z,345.50
2019-05-16T04:25:16.309Z,368.20
2019-05-16T04:25:53.083Z,357.90
2019-05-16T04:26:27.121Z,369.60
2019-05-16T04:27:02.597Z,345.20
2019-05-16T04:27:41.225Z,318.10
2019-05-16T04:28:13.187Z,344.10
2019-05-16T04:28:51.206Z,353.20
2019-05-16T04:29:24.287Z,326.00
2019-05-16T04:30:01.623Z,336.60
2019-05-16T04:30:35.205Z,346.30
2019-05-16T04:31:11.103Z,357.00
2019-05-16T04:31:45.981Z,337.20
2019-05-16T04:32:21.588Z,366.90
2019-05-16T04:32:57.090Z,355.60
2019-05-16T04:33:32.273Z,350.30
2019-05-16T04:34:07.677Z,351.10
2019-05-16T04:34:43.276Z,329.10
2019-05-16T04:35:21.136Z,353.50
2019-05-16T04:35:53.574Z,343.10
2019-05-16T04:36:29.077Z,340.00
2019-05-16T04:37:04.253Z,340.00
2019-05-16T04:37:42.198Z,334.80
2019-05-16T04:38:30.227Z,351.00
2019-05-16T04:38:51.200Z,336.80
2019-05-16T04:39:25.329Z,351.60
2019-05-16T04:40:01.319Z,338.40
2019-05-16T04:40:38.009Z,333.10
2019-05-16T04:41:11.470Z,347.80
2019-05-16T04:41:46.255Z,344.30
2019-05-16T04:42:24.125Z,329.60
2019-05-16T04:43:01.214Z,324.30
2019-05-16T04:43:34.513Z,330.60
2019-05-16T04:44:11.642Z,357.00
2019-05-16T04:44:44.824Z,355.90
2019-05-16T04:45:21.124Z,324.10
2019-05-16T04:45:55.789Z,340.70
2019-05-16T04:46:31.627Z,361.20
2019-05-16T04:47:06.797Z,364.50
2019-05-16T04:47:42.002Z,322.50
2019-05-16T04:48:17.270Z,327.60
2019-05-16T04:48:52.584Z,347.40
2019-05-16T04:49:27.864Z,361.00
2019-05-16T04:50:03.198Z,354.10
2019-05-16T04:50:41.774Z,357.60
2019-05-16T04:51:14.104Z,322.80
2019-05-16T04:51:51.689Z,305.90
2019-05-16T04:52:24.586Z,322.70
2019-05-16T04:53:01.404Z,337.50
2019-05-16T04:53:35.179Z,346.00
2019-05-16T04:54:11.374Z,338.60
2019-05-16T04:54:46.004Z,342.00
2019-05-16T04:55:21.428Z,338.70
2019-05-16T04:55:56.706Z,349.50
2019-05-16T04:56:32.112Z,353.90
2019-05-16T04:57:07.565Z,343.60
2019-05-16T04:57:42.969Z,333.40
2019-05-16T04:58:22.605Z,333.70
2019-05-16T04:58:53.531Z,349.70
2019-05-16T04:59:31.180Z,352.30
2019-05-16T05:00:04.353Z,358.40
2019-05-16T05:00:42.033Z,356.20
2019-05-16T05:01:15.143Z,340.90
2019-05-16T05:01:51.077Z,323.70
2019-05-16T05:02:25.978Z,324.30
2019-05-16T05:03:01.688Z,327.30
2019-05-16T05:03:37.066Z,341.00
2019-05-16T05:04:15.353Z,348.10
2019-05-16T05:04:50.698Z,324.60
2019-05-16T05:05:23.124Z,338.20
2019-05-16T05:06:00.579Z,341.70
2019-05-16T05:06:33.454Z,349.70
2019-05-16T05:07:11.221Z,363.50
2019-05-16T05:07:44.074Z,352.10
2019-05-16T05:08:21.946Z,350.50
2019-05-16T05:08:59.072Z,325.60
2019-05-16T05:09:31.620Z,342.20
2019-05-16T05:10:05.409Z,362.50
2019-05-16T05:10:40.814Z,360.20
2019-05-16T05:11:16.014Z,344.20
2019-05-16T05:11:51.930Z,345.50
2019-05-16T05:12:26.747Z,356.60
2019-05-16T05:13:02.045Z,355.30
2019-05-16T05:13:37.602Z,351.70
2019-05-16T05:14:13.229Z,351.00
2019-05-16T05:14:50.822Z,337.70
2019-05-16T05:15:24.054Z,339.20
2019-05-16T05:16:01.262Z,358.40
2019-05-16T05:16:34.765Z,365.10
2019-05-16T05:17:10.660Z,366.80
2019-05-16T05:17:45.702Z,368.30
2019-05-16T05:18:21.766Z,363.30
2019-05-16T05:18:56.928Z,325.10
2019-05-16T05:19:32.349Z,337.60
2019-05-16T05:20:10.395Z,359.30
2019-05-16T05:20:43.178Z,370.30
2019-05-16T05:21:20.692Z,368.80
2019-05-16T05:21:53.900Z,357.50
2019-05-16T05:22:30.484Z,370.70
2019-05-16T05:23:04.922Z,370.50
2019-05-16T05:23:40.706Z,323.70
2019-05-16T05:24:15.653Z,327.90
2019-05-16T05:24:51.029Z,356.40
2019-05-16T05:25:26.357Z,375.90
2019-05-16T05:26:01.880Z,375.90
2019-05-16T05:26:37.086Z,351.60
2019-05-16T05:27:12.775Z,351.80
2019-05-16T05:27:49.938Z,362.30
2019-05-16T05:28:23.675Z,367.80
2019-05-16T05:28:59.796Z,365.50
2019-05-16T05:29:34.221Z,347.40
2019-05-16T05:30:10.557Z,345.80
2019-05-16T05:30:45.141Z,345.40
2019-05-16T05:31:25.114Z,338.30
2019-05-16T05:31:55.927Z,356.30
2019-05-16T05:32:31.238Z,361.30
2019-05-16T05:33:06.529Z,362.20
2019-05-16T05:33:41.922Z,345.80
2019-05-16T05:34:19.765Z,339.60
2019-05-16T05:34:53.140Z,342.00
2019-05-16T05:35:30.937Z,355.00
2019-05-16T05:36:03.877Z,374.40
2019-05-16T05:36:40.875Z,350.40
2019-05-16T05:37:14.339Z,350.80
2019-05-16T05:37:50.746Z,356.20
2019-05-16T05:38:25.238Z,364.00
2019-05-16T05:39:08.977Z,378.90
2019-05-16T05:39:35.806Z,383.80
2019-05-16T05:40:11.064Z,356.20
2019-05-16T05:40:46.316Z,355.60
2019-05-16T05:41:21.734Z,350.60
2019-05-16T05:41:57.147Z,362.50
2019-05-16T05:42:32.335Z,367.60
2019-05-16T05:43:10.445Z,371.30
2019-05-16T05:43:43.470Z,370.30
2019-05-16T05:44:20.359Z,362.40
2019-05-16T05:44:54.345Z,357.90
2019-05-16T05:45:30.594Z,340.80
2019-05-16T05:46:04.847Z,357.70
2019-05-16T05:46:40.300Z,367.40
2019-05-16T05:47:15.672Z,365.30
2019-05-16T05:47:50.994Z,341.60
2019-05-16T05:48:26.097Z,357.50
2019-05-16T05:49:01.615Z,370.40
2019-05-16T05:49:36.986Z,372.60
2019-05-16T05:50:12.323Z,362.60
2019-05-16T05:50:47.708Z,364.00
2019-05-16T05:51:22.829Z,348.30
2019-05-16T05:52:00.648Z,367.50
2019-05-16T05:52:33.481Z,389.30
2019-05-16T05:53:10.204Z,359.00
2019-05-16T05:53:44.526Z,346.90
2019-05-16T05:54:20.418Z,364.00
2019-05-16T05:54:56.179Z,368.30
2019-05-16T05:55:31.539Z,360.70
2019-05-16T05:56:06.793Z,356.10
2019-05-16T05:56:42.109Z,359.30
2019-05-16T05:57:17.458Z,359.10
2019-05-16T05:57:52.642Z,373.40
2019-05-16T05:58:30.870Z,342.80
2019-05-16T05:59:03.894Z,342.20
2019-05-16T05:59:40.438Z,351.40
2019-05-16T06:00:14.840Z,366.50
2019-05-16T06:00:51.671Z,381.40
2019-05-16T06:01:25.782Z,398.30
2019-05-16T06:02:01.414Z,391.50
2019-05-16T06:02:36.606Z,368.00
2019-05-16T06:03:11.966Z,362.50
2019-05-16T06:03:47.529Z,369.40
2019-05-16T06:04:22.885Z,379.40
2019-05-16T06:04:59.712Z,373.10
2019-05-16T06:05:33.787Z,366.10
2019-05-16T06:06:10.515Z,383.70
2019-05-16T06:06:45.057Z,372.40
2019-05-16T06:07:20.511Z,350.70
2019-05-16T06:07:55.165Z,355.30
2019-05-16T06:08:30.530Z,366.50
2019-05-16T06:09:06.138Z,366.90
2019-05-16T06:09:52.422Z,364.00
2019-05-16T06:10:16.390Z,362.90
2019-05-16T06:10:52.004Z,352.80
2019-05-16T06:11:27.242Z,379.40
2019-05-16T06:12:02.735Z,382.30
2019-05-16T06:12:40.548Z,355.00
2019-05-16T06:13:13.677Z,350.10
2019-05-16T06:13:50.062Z,349.20
2019-05-16T06:14:24.203Z,357.40
2019-05-16T06:15:07.829Z,357.10
2019-05-16T06:15:35.561Z,373.10
2019-05-16T06:16:10.994Z,384.10
2019-05-16T06:16:46.082Z,380.20
2019-05-16T06:17:21.302Z,365.90
2019-05-16T06:17:56.708Z,379.10
2019-05-16T06:18:31.819Z,365.50
2019-05-16T06:19:06.927Z,375.80
2019-05-16T06:19:42.483Z,347.80
2019-05-16T06:20:20.126Z,350.90
2019-05-16T06:20:52.942Z,370.40
2019-05-16T06:21:32.972Z,379.30
2019-05-16T06:22:03.572Z,390.10
2019-05-16T06:22:40.278Z,371.70
2019-05-16T06:23:14.568Z,354.60
2019-05-16T06:23:50.870Z,360.40
2019-05-16T06:24:25.520Z,362.20
2019-05-16T06:25:01.127Z,374.60
2019-05-16T06:25:36.297Z,380.50
2019-05-16T06:26:12.445Z,378.10
2019-05-16T06:26:47.361Z,365.90
2019-05-16T06:27:22.690Z,352.90
2019-05-16T06:28:00.057Z,362.40
2019-05-16T06:28:33.650Z,364.60
2019-05-16T06:29:10.360Z,384.10
2019-05-16T06:29:44.742Z,386.10
2019-05-16T06:30:21.410Z,364.30
2019-05-16T06:30:55.478Z,362.10
2019-05-16T06:31:31.447Z,356.20
2019-05-16T06:32:06.612Z,373.10
2019-05-16T06:32:41.731Z,385.30
2019-05-16T06:33:17.060Z,390.30
2019-05-16T06:33:52.293Z,379.30
2019-05-16T06:34:30.022Z,350.10
2019-05-16T06:35:03.112Z,343.00
2019-05-16T06:35:40.235Z,384.10
2019-05-16T06:36:15.058Z,384.20
2019-05-16T06:36:50.899Z,357.20
2019-05-16T06:37:25.930Z,363.90
2019-05-16T06:38:01.528Z,381.40
2019-05-16T06:38:37.282Z,382.90
2019-05-16T06:39:12.724Z,380.50
2019-05-16T06:39:50.114Z,377.10
2019-05-16T06:40:23.204Z,364.90
2019-05-16T06:41:00.366Z,361.20
2019-05-16T06:41:33.834Z,390.10
2019-05-16T06:42:09.796Z,384.60
2019-05-16T06:42:45.157Z,386.50
2019-05-16T06:43:20.818Z,352.00
2019-05-16T06:43:55.970Z,353.40
2019-05-16T06:44:31.395Z,356.30
2019-05-16T06:45:06.686Z,371.80
2019-05-16T06:45:42.116Z,390.20
2019-05-16T06:46:19.966Z,404.00
2019-05-16T06:47:08.270Z,380.20
2019-05-16T06:47:30.347Z,343.40
2019-05-16T06:48:04.345Z,323.50
2019-05-16T06:48:39.910Z,334.90
2019-05-16T06:49:14.971Z,367.50
2019-05-16T06:49:50.977Z,382.40
2019-05-16T06:50:25.586Z,386.80
2019-05-16T06:51:02.916Z,352.20
2019-05-16T06:51:36.491Z,346.30
2019-05-16T06:52:11.933Z,345.70
2019-05-16T06:52:49.982Z,370.00
2019-05-16T06:53:22.558Z,384.50
2019-05-16T06:54:00.367Z,378.60
2019-05-16T06:54:33.295Z,382.80
2019-05-16T06:55:10.105Z,371.70
2019-05-16T06:55:44.276Z,385.20
2019-05-16T06:56:20.075Z,375.60
2019-05-16T06:56:55.120Z,370.40
2019-05-16T06:57:30.659Z,370.10
2019-05-16T06:58:05.859Z,374.20
2019-05-16T06:58:47.773Z,358.50
2019-05-16T06:59:16.663Z,376.10
2019-05-16T06:59:52.082Z,402.80
2019-05-16T07:00:29.909Z,385.80
2019-05-16T07:01:03.540Z,385.40
2019-05-16T07:01:40.275Z,398.90
2019-05-16T07:02:26.744Z,375.10
2019-05-16T07:02:50.019Z,359.60
2019-05-16T07:03:23.823Z,395.80
2019-05-16T07:04:00.138Z,402.50
2019-05-16T07:04:34.932Z,377.70
2019-05-16T07:05:10.409Z,373.80
2019-05-16T07:05:45.942Z,377.00
2019-05-16T07:06:45.680Z,394.50
2019-05-16T07:07:00.027Z,387.60
2019-05-16T07:07:31.822Z,391.60
2019-05-16T07:08:07.167Z,383.00
2019-05-16T07:08:43.054Z,390.20
2019-05-16T07:09:20.523Z,375.70
2019-05-16T07:09:59.979Z,371.90
2019-05-16T07:10:30.538Z,386.10
2019-05-16T07:11:04.098Z,400.90
2019-05-16T07:11:39.913Z,407.70
2019-05-16T07:12:15.341Z,403.30
2019-05-16T07:12:50.896Z,380.90
2019-05-16T07:13:26.202Z,381.80
2019-05-16T07:14:01.648Z,377.40
2019-05-16T07:14:36.799Z,395.20
2019-05-16T07:15:12.723Z,405.90
2019-05-16T07:15:49.784Z,378.00
2019-05-16T07:16:22.949Z,376.10
2019-05-16T07:17:00.197Z,390.70
2019-05-16T07:17:33.681Z,404.90
2019-05-16T07:18:12.476Z,382.60
2019-05-16T07:18:44.524Z,384.90
2019-05-16T07:19:20.777Z,394.00
2019-05-16T07:19:55.358Z,384.50
2019-05-16T07:20:30.754Z,380.60
2019-05-16T07:21:06.176Z,398.60